Time;durP1;ratioP1;P1;durP2;ratioP2;P2;SDS_P1;SDS_P2;PMS_P1;PMS_P2;Temp;Humidity;BMP_temperature;BMP_pressure;BME280_temperature;BME280_humidity;BME280_pressure;Samples;Min_cycle;Max_cycle;Signal;HPM_P1;HPM_P2
2023/05/26 00:01:46;;;;;;;6.67;3.53;;;14.40;98.00;;;;;;5053314;28;20453;-67
2023/05/26 00:04:16;;;;;;;6.30;3.30;;;14.40;98.00;;;;;;5052917;28;20454;-67
2023/05/26 00:06:44;;;;;;;6.40;3.90;;;14.40;98.00;;;;;;5053363;28;20504;-68
2023/05/26 00:09:11;;;;;;;5.63;3.40;;;14.40;98.00;;;;;;5053006;28;20545;-67
2023/05/26 00:11:41;;;;;;;7.43;3.57;;;14.30;98.00;;;;;;5035307;28;20454;-67
2023/05/26 00:14:10;;;;;;;9.47;3.77;;;14.40;98.00;;;;;;5052675;28;20450;-68
2023/05/26 00:16:37;;;;;;;8.73;3.80;;;14.40;98.00;;;;;;5052988;28;20449;-68
2023/05/26 00:19:07;;;;;;;7.30;3.27;;;14.30;98.00;;;;;;5052631;28;20460;-67
2023/05/26 00:21:35;;;;;;;6.23;3.53;;;14.20;98.00;;;;;;5052973;28;20512;-68
2023/05/26 00:24:02;;;;;;;7.80;4.10;;;14.20;98.00;;;;;;5052640;28;20489;-67
2023/05/26 00:26:29;;;;;;;6.10;3.33;;;14.10;98.00;;;;;;5052636;28;20464;-68
2023/05/26 00:28:58;;;;;;;7.73;3.60;;;14.30;98.00;;;;;;5052498;28;20465;-67
2023/05/26 00:31:25;;;;;;;8.60;3.80;;;14.20;98.00;;;;;;5052421;28;20457;-67
2023/05/26 00:33:53;;;;;;;6.77;3.23;;;14.10;98.00;;;;;;5052455;28;20453;-68
2023/05/26 00:36:20;;;;;;;7.87;4.20;;;14.10;98.00;;;;;;5052465;28;20550;-68
2023/05/26 00:38:47;;;;;;;6.57;3.50;;;14.00;98.00;;;;;;5052874;28;20458;-67
2023/05/26 00:41:15;;;;;;;6.33;3.80;;;14.00;98.00;;;;;;5052925;28;20573;-68
2023/05/26 00:43:42;;;;;;;9.83;4.27;;;13.70;98.00;;;;;;5020469;28;20450;-68
2023/05/26 00:46:10;;;;;;;5.73;3.30;;;13.70;98.00;;;;;;5032490;28;20465;-67
2023/05/26 00:48:37;;;;;;;8.53;4.00;;;13.80;98.00;;;;;;5032023;28;20450;-67
2023/05/26 00:51:05;;;;;;;8.70;3.63;;;13.70;98.00;;;;;;5032493;28;20461;-68
2023/05/26 00:53:32;;;;;;;9.73;3.40;;;13.80;98.00;;;;;;5015546;28;20462;-67
2023/05/26 00:56:00;;;;;;;8.30;3.73;;;13.90;98.00;;;;;;5033294;28;20486;-68
2023/05/26 00:58:28;;;;;;;5.97;3.50;;;13.90;98.00;;;;;;5014598;28;20528;-67
2023/05/26 01:00:56;;;;;;;8.50;4.00;;;13.90;98.00;;;;;;5032875;28;20483;-67
2023/05/26 01:03:26;;;;;;;9.77;3.80;;;13.70;98.00;;;;;;5032885;28;20886;-68
2023/05/26 01:05:54;;;;;;;7.10;3.33;;;13.70;98.00;;;;;;5015153;28;20463;-67
2023/05/26 01:08:21;;;;;;;6.13;3.90;;;13.70;98.00;;;;;;5014643;28;20454;-67
2023/05/26 01:10:48;;;;;;;8.17;3.70;;;13.50;98.00;;;;;;5031792;28;20491;-67
2023/05/26 01:13:21;;;;;;;6.13;3.43;;;13.40;98.00;;;;;;5031841;28;20868;-67
2023/05/26 01:15:52;;;;;;;7.10;3.20;;;13.40;98.00;;;;;;5031354;28;20490;-67
2023/05/26 01:18:25;;;;;;;6.30;3.53;;;13.40;98.00;;;;;;5031857;28;20901;-67
2023/05/26 01:21:05;;;;;;;7.90;3.93;;;13.50;98.00;;;;;;5031885;28;20830;-67
2023/05/26 01:23:50;;;;;;;13.03;3.37;;;13.40;98.00;;;;;;5031689;28;20462;-67
2023/05/26 01:26:30;;;;;;;6.03;3.17;;;13.30;98.00;;;;;;5031687;28;20545;-68
2023/05/26 01:29:03;;;;;;;7.73;3.57;;;13.30;98.00;;;;;;5031582;28;20458;-67
2023/05/26 01:31:33;;;;;;;5.77;3.10;;;13.40;98.00;;;;;;5031688;28;20458;-67
2023/05/26 01:34:00;;;;;;;6.53;3.30;;;13.50;98.00;;;;;;5031562;28;20475;-67
2023/05/26 01:36:29;;;;;;;8.40;3.43;;;13.40;98.00;;;;;;5014118;28;20485;-68
2023/05/26 01:38:56;;;;;;;8.43;3.50;;;13.50;98.00;;;;;;5031426;28;20463;-68
2023/05/26 01:41:27;;;;;;;9.13;3.90;;;13.50;98.00;;;;;;5031338;28;20466;-67
2023/05/26 01:44:02;;;;;;;5.27;3.07;;;13.20;98.00;;;;;;5031301;28;20545;-67
2023/05/26 01:46:33;;;;;;;7.90;4.33;;;13.20;98.00;;;;;;5031305;28;20458;-67
2023/05/26 01:49:03;;;;;;;5.53;3.17;;;13.30;98.00;;;;;;5031311;28;20493;-68
2023/05/26 01:51:35;;;;;;;7.30;3.83;;;13.30;98.00;;;;;;5031434;28;20461;-67
2023/05/26 01:54:07;;;;;;;7.00;3.50;;;13.40;98.00;;;;;;5031260;28;20506;-67
2023/05/26 01:56:36;;;;;;;5.60;3.27;;;13.50;98.00;;;;;;5031053;28;20491;-67
2023/05/26 01:59:06;;;;;;;9.63;3.90;;;13.60;98.00;;;;;;5031094;28;20473;-67
2023/05/26 02:01:34;;;;;;;8.10;3.40;;;13.50;98.00;;;;;;5031081;28;20473;-67
2023/05/26 02:04:01;;;;;;;5.10;3.00;;;13.60;98.00;;;;;;5030896;28;20550;-68
2023/05/26 02:06:29;;;;;;;8.53;4.27;;;13.40;98.00;;;;;;5031314;28;20889;-67
2023/05/26 02:08:56;;;;;;;7.50;3.70;;;13.50;98.00;;;;;;5031118;28;20457;-67
2023/05/26 02:11:23;;;;;;;6.60;3.10;;;13.50;98.00;;;;;;5031257;28;20465;-67
2023/05/26 02:13:50;;;;;;;7.63;3.33;;;13.60;98.00;;;;;;5031036;28;20466;-67
2023/05/26 02:16:21;;;;;;;7.37;3.57;;;13.60;98.00;;;;;;5013645;28;20478;-67
2023/05/26 02:18:49;;;;;;;6.03;3.30;;;13.60;98.00;;;;;;5030980;28;20516;-67
2023/05/26 02:21:16;;;;;;;6.23;3.30;;;13.50;98.00;;;;;;5030962;28;20459;-67
2023/05/26 02:23:44;;;;;;;8.37;3.73;;;13.50;98.00;;;;;;5030863;28;20952;-68
2023/05/26 02:26:12;;;;;;;6.23;3.47;;;13.60;98.00;;;;;;5030912;28;20937;-67
2023/05/26 02:28:39;;;;;;;8.47;3.90;;;13.70;98.00;;;;;;5031232;28;20496;-67
2023/05/26 02:31:06;;;;;;;8.63;3.93;;;13.80;98.00;;;;;;5031259;28;20520;-67
2023/05/26 02:33:35;;;;;;;4.97;3.10;;;13.60;98.00;;;;;;5031246;28;20501;-67
2023/05/26 02:36:02;;;;;;;10.87;4.00;;;13.70;98.00;;;;;;5012925;28;21008;-67
2023/05/26 02:38:29;;;;;;;8.07;3.83;;;13.80;98.00;;;;;;5031076;28;20461;-67
2023/05/26 02:40:56;;;;;;;5.30;3.10;;;14.00;98.00;;;;;;5030745;28;20458;-68
2023/05/26 02:43:23;;;;;;;9.90;3.83;;;13.90;98.00;;;;;;5013340;28;20668;-67
2023/05/26 02:45:51;;;;;;;11.30;3.53;;;13.80;98.00;;;;;;5013301;28;20470;-67
2023/05/26 02:48:18;;;;;;;6.60;3.50;;;13.70;98.00;;;;;;5030659;28;20550;-68
2023/05/26 02:50:47;;;;;;;10.90;3.70;;;13.50;98.00;;;;;;5030531;28;20520;-67
2023/05/26 02:53:15;;;;;;;8.67;3.73;;;13.70;98.00;;;;;;5030391;28;20550;-67
2023/05/26 02:55:42;;;;;;;7.97;3.70;;;13.60;98.00;;;;;;5030350;28;20481;-67
2023/05/26 02:58:10;;;;;;;7.17;3.37;;;13.50;98.00;;;;;;5030743;28;20461;-68
2023/05/26 03:00:38;;;;;;;7.13;3.70;;;13.30;98.00;;;;;;5030670;28;20650;-67
2023/05/26 03:03:05;;;;;;;6.67;3.60;;;13.20;98.00;;;;;;5013054;28;20458;-67
2023/05/26 03:05:33;;;;;;;7.47;3.53;;;13.10;98.00;;;;;;5030547;28;20468;-67
2023/05/26 03:08:03;;;;;;;7.30;3.60;;;13.00;98.00;;;;;;5030583;28;20905;-67
2023/05/26 03:10:30;;;;;;;9.47;4.07;;;12.90;98.00;;;;;;5030456;28;20960;-67
2023/05/26 03:12:57;;;;;;;4.97;3.10;;;12.80;98.00;;;;;;5032322;28;20485;-67
2023/05/26 03:15:24;;;;;;;10.37;4.50;;;12.90;98.00;;;;;;5033865;28;20760;-67
2023/05/26 03:17:52;;;;;;;7.57;3.70;;;12.90;98.00;;;;;;5034114;28;20557;-67
2023/05/26 03:20:19;;;;;;;5.20;3.20;;;12.80;98.00;;;;;;5033857;28;20467;-67
2023/05/26 03:22:46;;;;;;;6.03;3.47;;;12.80;98.00;;;;;;5034293;28;20980;-67
2023/05/26 03:25:14;;;;;;;7.67;3.87;;;12.80;98.00;;;;;;5016515;28;20528;-67
2023/05/26 03:27:43;;;;;;;8.20;4.23;;;12.70;98.00;;;;;;5033843;28;20473;-67
2023/05/26 03:30:10;;;;;;;7.27;3.50;;;12.80;98.00;;;;;;5016166;28;20972;-67
2023/05/26 03:32:37;;;;;;;8.17;3.97;;;12.60;98.00;;;;;;5034064;28;20802;-68
2023/05/26 03:35:05;;;;;;;10.63;3.63;;;12.70;98.00;;;;;;5033489;28;20461;-67
2023/05/26 03:37:32;;;;;;;8.47;4.13;;;12.70;98.00;;;;;;5033882;28;20495;-67
2023/05/26 03:39:59;;;;;;;6.80;3.50;;;12.60;98.00;;;;;;5015960;28;20498;-68
2023/05/26 03:42:28;;;;;;;9.17;3.50;;;12.60;98.00;;;;;;5033542;28;20454;-67
2023/05/26 03:44:56;;;;;;;9.53;4.13;;;12.50;98.00;;;;;;5033797;28;20460;-67
2023/05/26 03:47:23;;;;;;;8.77;3.43;;;12.60;98.00;;;;;;5033092;28;20552;-67
2023/05/26 03:49:50;;;;;;;7.97;3.80;;;12.70;98.00;;;;;;5033373;28;20463;-67
2023/05/26 03:52:17;;;;;;;7.90;3.80;;;12.80;98.00;;;;;;5033226;28;20458;-68
2023/05/26 03:54:44;;;;;;;7.20;3.53;;;12.80;98.00;;;;;;5033327;28;20462;-67
2023/05/26 03:57:11;;;;;;;6.20;3.40;;;12.70;98.00;;;;;;5033110;28;20575;-67
2023/05/26 03:59:39;;;;;;;6.97;3.47;;;12.90;98.00;;;;;;5033148;28;20465;-67
2023/05/26 04:02:06;;;;;;;6.70;3.37;;;12.60;98.00;;;;;;5033068;28;20465;-67
2023/05/26 04:04:34;;;;;;;8.27;4.67;;;12.60;98.00;;;;;;5031228;28;20814;-67
2023/05/26 04:07:01;;;;;;;10.50;4.00;;;12.50;98.00;;;;;;5015654;28;20450;-67
2023/05/26 04:09:30;;;;;;;8.17;3.57;;;12.50;98.00;;;;;;5032966;28;20462;-67
2023/05/26 04:11:57;;;;;;;8.33;3.77;;;12.40;98.00;;;;;;5033057;28;20822;-67
2023/05/26 04:14:24;;;;;;;8.60;4.00;;;12.40;98.00;;;;;;5032836;28;20496;-67
2023/05/26 04:16:53;;;;;;;6.70;3.43;;;12.50;98.00;;;;;;5032743;28;20892;-67
2023/05/26 04:19:20;;;;;;;8.47;3.93;;;12.40;98.00;;;;;;5032931;28;20520;-67
2023/05/26 04:21:47;;;;;;;6.67;3.60;;;12.30;98.00;;;;;;5032861;28;20458;-67
2023/05/26 04:24:14;;;;;;;7.77;4.10;;;12.30;98.00;;;;;;5032287;28;20472;-67
2023/05/26 04:26:43;;;;;;;10.77;4.33;;;12.30;98.00;;;;;;5015305;28;21079;-67
2023/05/26 04:29:11;;;;;;;16.07;3.80;;;12.30;98.00;;;;;;5032535;28;20454;-67
2023/05/26 04:31:41;;;;;;;7.70;3.70;;;12.20;98.00;;;;;;5032539;28;20461;-67
2023/05/26 04:34:10;;;;;;;7.47;3.73;;;12.30;98.00;;;;;;5032402;28;20990;-67
2023/05/26 04:36:38;;;;;;;10.63;4.27;;;12.30;98.00;;;;;;5032572;28;20490;-68
2023/05/26 04:39:06;;;;;;;9.97;4.70;;;12.30;98.00;;;;;;5032243;28;20454;-67
2023/05/26 04:41:33;;;;;;;6.13;3.30;;;12.30;98.00;;;;;;5032724;28;20849;-67
2023/05/26 04:44:01;;;;;;;9.80;3.97;;;12.40;98.00;;;;;;5032011;28;20554;-67
2023/05/26 04:46:29;;;;;;;6.77;3.90;;;12.70;98.00;;;;;;5014544;28;20465;-67
2023/05/26 04:48:57;;;;;;;10.90;3.90;;;12.70;98.00;;;;;;5032316;28;20460;-67
2023/05/26 04:51:26;;;;;;;9.60;4.40;;;12.70;98.00;;;;;;5032159;28;20464;-67
2023/05/26 04:53:53;;;;;;;12.50;4.40;;;12.70;98.00;;;;;;5031951;28;20474;-67
2023/05/26 04:56:21;;;;;;;7.40;3.80;;;12.70;98.00;;;;;;5031783;28;20575;-67
2023/05/26 04:58:48;;;;;;;8.47;3.97;;;13.10;98.00;;;;;;5032147;28;20462;-67
2023/05/26 05:01:17;;;;;;;8.97;4.20;;;13.30;98.00;;;;;;5031881;28;20458;-67
2023/05/26 05:03:44;;;;;;;8.53;4.33;;;13.10;98.00;;;;;;5032031;28;20494;-67
2023/05/26 05:06:12;;;;;;;8.07;4.20;;;13.00;98.00;;;;;;5031812;28;20473;-67
2023/05/26 05:08:40;;;;;;;6.13;3.47;;;12.90;98.00;;;;;;5032098;28;20468;-67
2023/05/26 05:11:07;;;;;;;8.63;3.83;;;13.00;98.00;;;;;;5032157;28;20454;-67
2023/05/26 05:13:34;;;;;;;9.30;4.53;;;13.00;98.00;;;;;;5031828;28;20519;-67
2023/05/26 05:16:01;;;;;;;8.07;4.00;;;12.90;98.00;;;;;;5031737;28;20489;-67
2023/05/26 05:18:28;;;;;;;9.63;4.60;;;12.90;98.00;;;;;;5031870;28;20462;-67
2023/05/26 05:20:56;;;;;;;7.07;3.90;;;12.90;98.00;;;;;;5031743;28;20454;-67
2023/05/26 05:23:23;;;;;;;7.13;3.70;;;13.00;98.00;;;;;;5031698;28;20454;-67
2023/05/26 05:25:52;;;;;;;13.30;3.60;;;13.20;98.00;;;;;;5031551;28;20539;-67
2023/05/26 05:28:19;;;;;;;6.40;3.93;;;13.40;98.00;;;;;;5031518;28;20884;-67
2023/05/26 05:30:46;;;;;;;7.27;3.80;;;13.60;98.00;;;;;;5031777;28;20991;-67
2023/05/26 05:33:13;;;;;;;15.80;4.40;;;13.70;98.00;;;;;;5031348;28;20466;-67
2023/05/26 05:35:41;;;;;;;13.30;4.97;;;13.90;98.00;;;;;;5030606;28;20461;-68
2023/05/26 05:38:07;;;;;;;8.23;4.20;;;14.10;98.00;;;;;;5031350;28;20459;-67
2023/05/26 05:40:34;;;;;;;7.80;3.80;;;14.20;98.00;;;;;;5031216;28;20454;-67
2023/05/26 05:43:07;;;;;;;9.20;4.50;;;14.30;98.00;;;;;;5031304;28;20459;-67
2023/05/26 05:45:34;;;;;;;11.70;4.73;;;14.40;98.00;;;;;;5030879;28;20459;-67
2023/05/26 05:48:01;;;;;;;6.33;4.00;;;14.50;98.00;;;;;;5031181;28;20458;-67
2023/05/26 05:50:31;;;;;;;13.83;5.10;;;14.60;98.00;;;;;;5031574;28;20470;-67
2023/05/26 05:52:58;;;;;;;12.90;4.77;;;14.80;98.00;;;;;;5031206;28;20470;-68
2023/05/26 05:55:29;;;;;;;8.80;4.60;;;14.90;98.00;;;;;;5031063;28;20481;-67
2023/05/26 05:57:56;;;;;;;11.97;4.90;;;15.00;98.00;;;;;;5031374;28;20577;-67
2023/05/26 06:00:25;;;;;;;13.43;4.67;;;15.00;98.00;;;;;;5031094;28;20455;-65
2023/05/26 06:02:52;;;;;;;7.77;4.20;;;15.20;98.00;;;;;;5013572;28;20872;-65
2023/05/26 06:05:19;;;;;;;9.80;4.73;;;15.20;98.00;;;;;;5031046;28;20451;-65
2023/05/26 06:07:46;;;;;;;10.90;4.63;;;15.30;98.00;;;;;;5031331;28;20771;-65
2023/05/26 06:10:14;;;;;;;11.83;4.67;;;15.20;98.00;;;;;;5031049;28;20867;-65
2023/05/26 06:12:41;;;;;;;13.10;4.90;;;15.20;98.00;;;;;;5031279;28;20800;-65
2023/05/26 06:15:09;;;;;;;9.67;4.60;;;15.40;98.00;;;;;;5030881;28;20459;-65
2023/05/26 06:17:38;;;;;;;12.27;4.83;;;15.50;98.00;;;;;;5030824;28;20490;-65
2023/05/26 06:20:06;;;;;;;7.97;3.97;;;15.50;98.00;;;;;;5030891;28;20465;-65
2023/05/26 06:22:36;;;;;;;7.53;4.03;;;15.50;98.00;;;;;;5030944;28;20459;-65
2023/05/26 06:25:03;;;;;;;8.10;4.00;;;15.50;98.00;;;;;;5030681;28;20459;-65
2023/05/26 06:27:30;;;;;;;10.87;4.50;;;15.70;98.00;;;;;;5030844;28;20549;-65
2023/05/26 06:29:57;;;;;;;13.30;4.87;;;15.60;98.00;;;;;;5030754;28;20509;-65
2023/05/26 06:32:24;;;;;;;9.40;4.93;;;15.60;98.00;;;;;;5030731;28;20500;-65
2023/05/26 06:34:53;;;;;;;13.20;4.60;;;15.60;98.00;;;;;;5030630;28;20504;-65
2023/05/26 06:37:20;;;;;;;13.80;4.83;;;15.60;98.00;;;;;;5012862;28;20553;-65
2023/05/26 06:39:48;;;;;;;8.00;3.83;;;15.80;98.00;;;;;;5030623;28;20460;-65
2023/05/26 06:42:16;;;;;;;9.10;4.20;;;15.90;98.00;;;;;;5030740;28;20462;-65
2023/05/26 06:44:43;;;;;;;11.23;5.37;;;15.90;98.00;;;;;;5030918;28;20455;-65
2023/05/26 06:47:10;;;;;;;9.00;4.50;;;16.00;98.00;;;;;;5032867;28;20450;-65
2023/05/26 06:49:37;;;;;;;8.93;4.57;;;16.00;98.00;;;;;;5034397;28;21020;-65
2023/05/26 06:52:06;;;;;;;9.60;4.47;;;16.10;98.00;;;;;;5034384;28;20841;-65
2023/05/26 06:54:33;;;;;;;7.90;4.10;;;16.20;98.00;;;;;;5034402;28;20474;-65
2023/05/26 06:57:02;;;;;;;12.67;5.13;;;16.40;98.00;;;;;;5034201;28;20489;-65
2023/05/26 06:59:29;;;;;;;8.20;4.10;;;16.60;98.00;;;;;;5017268;28;20948;-65
2023/05/26 07:01:57;;;;;;;11.80;5.03;;;16.70;98.00;;;;;;5034686;28;20536;-65
2023/05/26 07:04:24;;;;;;;10.27;3.93;;;16.70;98.00;;;;;;5034146;28;20804;-65
2023/05/26 07:06:51;;;;;;;8.50;4.27;;;16.70;98.00;;;;;;5034082;28;20485;-65
2023/05/26 07:09:21;;;;;;;14.50;4.67;;;16.80;98.00;;;;;;5034009;28;20516;-65
2023/05/26 07:11:48;;;;;;;10.93;4.67;;;16.80;98.00;;;;;;5034079;28;20807;-65
2023/05/26 07:14:15;;;;;;;8.33;4.13;;;16.80;98.00;;;;;;5033919;28;20536;-65
2023/05/26 07:16:42;;;;;;;7.80;3.97;;;16.90;98.00;;;;;;5033961;28;20482;-65
2023/05/26 07:19:09;;;;;;;11.10;5.00;;;17.10;98.00;;;;;;5034199;28;20827;-65
2023/05/26 07:21:36;;;;;;;11.40;4.60;;;17.20;98.00;;;;;;5033980;28;20455;-65
2023/05/26 07:24:03;;;;;;;7.60;4.23;;;17.20;98.00;;;;;;5016298;28;20493;-66
2023/05/26 07:26:32;;;;;;;9.30;4.47;;;17.30;98.00;;;;;;5033960;28;20466;-65
2023/05/26 07:28:59;;;;;;;11.90;5.00;;;17.40;98.00;;;;;;5016035;28;20830;-65
2023/05/26 07:31:26;;;;;;;9.13;4.30;;;17.50;98.00;;;;;;5033802;28;21025;-66
2023/05/26 07:33:53;;;;;;;10.40;4.43;;;17.70;98.00;;;;;;5015888;28;20483;-65
2023/05/26 07:36:20;;;;;;;8.43;4.60;;;17.80;98.00;;;;;;5032561;28;21012;-65
2023/05/26 07:38:47;;;;;;;11.90;4.90;;;17.80;98.00;;;;;;5381092;22;20518;-66
2023/05/26 07:41:14;;;;;;;6.37;3.73;;;18.00;98.00;;;;;;5033426;28;20454;-66
2023/05/26 07:43:49;;;;;;;7.80;4.20;;;18.10;98.00;;;;;;5034318;28;20524;-65
2023/05/26 07:46:16;;;;;;;9.50;4.60;;;18.20;98.00;;;;;;5033663;28;20515;-65
2023/05/26 07:48:43;;;;;;;8.40;4.23;;;18.20;98.00;;;;;;5031779;28;20512;-65
2023/05/26 07:51:10;;;;;;;8.07;4.50;;;18.20;98.00;;;;;;5031996;28;20467;-65
2023/05/26 07:53:37;;;;;;;6.90;3.60;;;18.40;98.00;;;;;;5033377;28;20461;-65
2023/05/26 07:56:04;;;;;;;9.53;4.23;;;18.50;98.00;;;;;;5032507;28;20501;-66
2023/05/26 07:58:31;;;;;;;10.63;4.53;;;18.60;98.00;;;;;;5032475;28;20860;-65
2023/05/26 08:01:00;;;;;;;13.60;4.83;;;18.60;98.00;;;;;;5015545;28;20516;-65
2023/05/26 08:03:27;;;;;;;8.30;3.80;;;18.80;98.00;;;;;;5032672;28;20455;-65
2023/05/26 08:05:54;;;;;;;8.80;4.27;;;18.80;98.00;;;;;;5032899;28;20453;-66
2023/05/26 08:08:21;;;;;;;9.10;4.30;;;18.90;98.00;;;;;;5032949;28;20462;-65
2023/05/26 08:10:50;;;;;;;9.40;4.20;;;19.10;98.00;;;;;;5032716;28;20465;-65
2023/05/26 08:13:17;;;;;;;9.97;5.17;;;19.30;98.00;;;;;;5032894;28;20562;-66
2023/05/26 08:15:53;;;;;;;6.10;3.60;;;19.30;98.00;;;;;;5032497;28;20465;-65
2023/05/26 08:18:21;;;;;;;9.23;4.30;;;19.40;98.00;;;;;;5032686;28;20901;-65
2023/05/26 08:20:52;;;;;;;13.33;5.03;;;19.70;98.00;;;;;;5032815;28;20973;-65
2023/05/26 08:23:19;;;;;;;9.13;4.50;;;19.80;98.00;;;;;;5032407;28;20460;-64
2023/05/26 08:25:46;;;;;;;11.57;5.07;;;19.80;98.00;;;;;;5014765;28;20462;-63
2023/05/26 08:28:14;;;;;;;12.60;5.40;;;19.90;98.00;;;;;;5031126;28;20442;-63
2023/05/26 08:30:41;;;;;;;8.27;4.27;;;20.00;98.00;;;;;;5014812;28;20270;-62
2023/05/26 08:33:08;;;;;;;12.60;4.90;;;20.10;98.00;;;;;;5032429;28;20953;-64
2023/05/26 08:35:38;;;;;;;9.07;4.40;;;20.20;98.00;;;;;;5032233;28;20509;-63
2023/05/26 08:38:05;;;;;;;10.50;4.73;;;20.20;97.60;;;;;;5031276;28;20501;-62
2023/05/26 08:40:33;;;;;;;34.77;3.57;;;20.20;98.00;;;;;;5032522;28;21075;-62
2023/05/26 08:43:07;;;;;;;7.07;3.90;;;20.30;98.00;;;;;;5031011;28;20492;-62
2023/05/26 08:45:34;;;;;;;8.70;4.83;;;20.60;98.00;;;;;;5038817;28;20556;-65
2023/05/26 08:48:03;;;;;;;8.83;4.13;;;20.70;98.00;;;;;;5051965;28;20461;-65
2023/05/26 08:50:31;;;;;;;10.70;5.50;;;20.80;98.00;;;;;;5034183;28;20450;-65
2023/05/26 08:53:01;;;;;;;11.20;5.00;;;20.70;98.00;;;;;;5048338;28;20538;-65
2023/05/26 08:55:28;;;;;;;13.03;4.43;;;20.80;98.00;;;;;;5031937;28;20459;-64
2023/05/26 08:57:58;;;;;;;8.87;4.50;;;20.80;98.00;;;;;;5021963;28;20532;-66
2023/05/26 09:00:29;;;;;;;9.40;4.60;;;20.90;98.00;;;;;;5051765;28;20541;-64
2023/05/26 09:02:56;;;;;;;9.60;4.23;;;21.00;98.00;;;;;;5018317;28;20805;-64
2023/05/26 09:05:24;;;;;;;9.53;4.13;;;21.10;98.00;;;;;;5051523;28;20528;-64
2023/05/26 09:07:51;;;;;;;6.37;3.90;;;21.20;97.90;;;;;;5051845;28;20469;-63
2023/05/26 09:10:26;;;;;;;7.90;4.10;;;21.40;98.00;;;;;;5052336;28;20511;-64
2023/05/26 09:13:07;;;;;;;9.40;4.73;;;21.50;98.00;;;;;;5053075;28;20469;-63
2023/05/26 09:15:34;;;;;;;9.30;5.03;;;21.40;98.00;;;;;;5051617;28;20457;-60
2023/05/26 09:18:05;;;;;;;10.30;4.63;;;21.50;98.00;;;;;;5052313;28;20492;-59
2023/05/26 09:20:33;;;;;;;9.93;5.23;;;21.60;98.00;;;;;;5034899;28;20465;-59
2023/05/26 09:23:00;;;;;;;9.40;4.70;;;21.70;98.00;;;;;;5051682;28;20453;-59
2023/05/26 09:25:34;;;;;;;6.30;3.87;;;21.90;96.80;;;;;;5051565;28;20460;-59
2023/05/26 09:28:02;;;;;;;8.50;4.50;;;22.00;96.30;;;;;;5051436;28;20462;-59
2023/05/26 09:30:34;;;;;;;11.87;5.03;;;22.20;96.90;;;;;;5051445;28;20513;-59
2023/05/26 09:33:01;;;;;;;7.43;4.33;;;22.10;96.30;;;;;;5051380;28;20461;-59
2023/05/26 09:35:34;;;;;;;8.90;4.33;;;22.10;95.90;;;;;;5037673;28;20458;-59
2023/05/26 09:38:04;;;;;;;11.83;5.50;;;22.20;98.00;;;;;;5031417;28;20522;-60
2023/05/26 09:40:33;;;;;;;9.30;4.60;;;22.40;97.10;;;;;;5031471;28;20447;-61
2023/05/26 09:43:02;;;;;;;9.77;4.80;;;22.50;97.10;;;;;;5031436;28;20609;-61
2023/05/26 09:45:35;;;;;;;10.23;4.50;;;22.40;94.90;;;;;;5030986;28;20485;-61
2023/05/26 09:48:03;;;;;;;11.00;5.27;;;22.50;97.50;;;;;;5031770;28;20542;-61
2023/05/26 09:50:32;;;;;;;8.80;4.83;;;22.70;95.60;;;;;;5031417;28;20497;-59
2023/05/26 09:53:02;;;;;;;10.50;5.30;;;22.90;94.90;;;;;;5031189;28;20467;-61
2023/05/26 09:55:29;;;;;;;9.10;4.70;;;22.90;93.70;;;;;;5031152;28;20486;-61
2023/05/26 09:58:03;;;;;;;9.50;4.80;;;23.00;94.00;;;;;;5031471;28;20494;-61
2023/05/26 10:00:32;;;;;;;9.13;4.90;;;23.10;94.90;;;;;;5030813;28;20542;-61
2023/05/26 10:02:59;;;;;;;11.27;4.90;;;23.40;94.40;;;;;;5013648;28;20529;-61
2023/05/26 10:05:27;;;;;;;10.83;4.83;;;23.50;94.00;;;;;;5031128;28;20454;-61
2023/05/26 10:07:55;;;;;;;10.20;4.80;;;23.60;95.60;;;;;;5030481;28;20465;-61
2023/05/26 10:10:24;;;;;;;12.23;4.40;;;23.80;97.60;;;;;;5029757;28;20808;-61
2023/05/26 10:12:52;;;;;;;9.70;5.20;;;23.90;94.60;;;;;;5030657;28;20953;-61
2023/05/26 10:15:23;;;;;;;8.97;5.20;;;24.10;94.10;;;;;;5030841;28;20908;-61
2023/05/26 10:17:50;;;;;;;8.33;4.20;;;24.10;91.20;;;;;;5030913;28;20482;-61
2023/05/26 10:20:19;;;;;;;10.70;4.93;;;24.10;93.30;;;;;;5030752;28;20833;-61
2023/05/26 10:22:54;;;;;;;7.50;4.63;;;24.20;94.00;;;;;;5034163;28;20458;-61
2023/05/26 10:25:24;;;;;;;6.60;4.37;;;24.20;91.20;;;;;;5053389;28;21003;-61
2023/05/26 10:27:58;;;;;;;10.97;5.27;;;24.40;93.20;;;;;;5055065;28;20453;-61
2023/05/26 10:30:28;;;;;;;9.07;4.63;;;24.50;92.30;;;;;;5054646;28;20472;-61
2023/05/26 10:32:57;;;;;;;9.80;5.07;;;24.70;92.00;;;;;;5055000;28;20454;-61
2023/05/26 10:35:28;;;;;;;9.77;4.40;;;24.80;90.00;;;;;;5054315;28;20450;-61
2023/05/26 10:37:57;;;;;;;9.87;4.60;;;24.90;91.10;;;;;;5054358;28;20512;-61
2023/05/26 10:40:31;;;;;;;10.73;4.77;;;25.00;92.30;;;;;;5054512;28;20548;-61
2023/05/26 10:43:03;;;;;;;8.87;4.37;;;25.00;89.70;;;;;;5054831;28;20960;-61
2023/05/26 10:45:33;;;;;;;8.03;4.67;;;25.00;88.20;;;;;;5054514;28;20461;-61
2023/05/26 10:48:07;;;;;;;10.20;4.50;;;24.50;90.40;;;;;;5054365;28;20453;-61
2023/05/26 10:51:05;;;;;;;10.40;5.27;;;24.60;89.30;;;;;;5054234;28;20536;-61
2023/05/26 10:53:33;;;;;;;12.60;5.20;;;24.90;93.10;;;;;;5054453;28;20468;-61
2023/05/26 10:56:02;;;;;;;9.73;5.03;;;25.20;90.80;;;;;;5054260;28;20858;-61
2023/05/26 10:58:41;;;;;;;7.47;4.70;;;25.40;91.90;;;;;;5054012;28;20481;-61
2023/05/26 11:01:12;;;;;;;7.80;4.70;;;25.60;89.80;;;;;;5054024;28;20544;-61
2023/05/26 11:03:42;;;;;;;15.60;4.70;;;25.60;87.90;;;;;;5054128;28;20902;-61
2023/05/26 11:06:10;;;;;;;9.67;4.83;;;25.80;87.30;;;;;;5053917;28;20458;-61
2023/05/26 11:08:38;;;;;;;9.27;4.83;;;25.90;87.50;;;;;;5053910;28;20485;-61
2023/05/26 11:11:07;;;;;;;11.40;4.60;;;26.10;88.70;;;;;;5053495;28;20952;-61
2023/05/26 11:13:45;;;;;;;9.13;4.70;;;26.30;86.70;;;;;;5053818;28;20449;-61
2023/05/26 11:16:19;;;;;;;9.47;4.60;;;26.30;85.40;;;;;;5053924;28;20457;-61
2023/05/26 11:18:51;;;;;;;11.70;4.80;;;26.20;86.80;;;;;;5036319;28;20521;-61
2023/05/26 11:21:25;;;;;;;10.63;5.20;;;26.00;86.50;;;;;;5053662;28;21034;-61
2023/05/26 11:23:54;;;;;;;13.90;5.30;;;25.80;88.30;;;;;;5053621;28;20492;-61
2023/05/26 11:26:23;;;;;;;8.57;4.10;;;25.70;88.20;;;;;;5053684;28;20878;-61
2023/05/26 11:28:50;;;;;;;8.03;4.30;;;25.80;86.70;;;;;;5053619;28;20519;-61
2023/05/26 11:31:22;;;;;;;9.43;5.13;;;26.20;86.90;;;;;;5053547;28;20485;-61
2023/05/26 11:33:49;;;;;;;7.67;4.73;;;26.40;84.80;;;;;;5053017;28;20458;-61
2023/05/26 11:36:18;;;;;;;8.33;4.90;;;26.70;85.70;;;;;;5053387;28;20461;-61
2023/05/26 11:38:47;;;;;;;14.30;5.10;;;26.90;83.60;;;;;;5053450;28;20494;-61
2023/05/26 11:41:16;;;;;;;8.30;4.70;;;27.10;85.20;;;;;;5053604;28;20516;-61
2023/05/26 11:43:46;;;;;;;8.50;4.80;;;27.40;85.20;;;;;;5053036;28;20449;-61
2023/05/26 11:46:15;;;;;;;10.73;4.93;;;27.60;85.10;;;;;;5053540;28;20453;-61
2023/05/26 11:48:44;;;;;;;9.70;5.00;;;27.60;83.50;;;;;;5053113;28;20462;-61
2023/05/26 11:51:12;;;;;;;11.90;5.10;;;27.90;83.60;;;;;;5035182;28;20571;-61
2023/05/26 11:53:40;;;;;;;7.07;4.40;;;27.90;81.80;;;;;;5053395;28;20831;-62
2023/05/26 11:56:08;;;;;;;11.23;4.30;;;27.90;82.50;;;;;;5053115;28;20461;-63
2023/05/26 11:58:38;;;;;;;8.20;4.90;;;27.90;84.80;;;;;;5053033;28;20489;-63
2023/05/26 12:01:06;;;;;;;16.03;4.80;;;28.10;83.80;;;;;;5053227;28;20454;-64
2023/05/26 12:03:36;;;;;;;7.10;4.17;;;28.30;81.50;;;;;;5052894;28;20515;-63
2023/05/26 12:06:11;;;;;;;8.40;4.70;;;28.40;81.80;;;;;;5052728;28;20464;-64
2023/05/26 12:08:49;;;;;;;9.47;4.57;;;28.50;81.20;;;;;;5053126;28;20458;-64
2023/05/26 12:11:18;;;;;;;9.93;4.80;;;28.60;83.30;;;;;;5052729;28;20453;-64
2023/05/26 12:13:45;;;;;;;7.80;4.60;;;28.20;83.90;;;;;;5052957;28;20469;-64
2023/05/26 12:16:24;;;;;;;9.87;4.60;;;27.90;82.30;;;;;;5052509;28;20457;-64
2023/05/26 12:18:55;;;;;;;7.60;4.53;;;27.30;85.40;;;;;;5052589;28;20568;-64
2023/05/26 12:21:25;;;;;;;9.90;4.80;;;26.70;84.40;;;;;;5052523;28;20453;-62
2023/05/26 12:23:54;;;;;;;10.10;5.00;;;26.40;84.90;;;;;;5052413;28;20453;-61
2023/05/26 12:26:25;;;;;;;6.70;4.70;;;26.10;86.40;;;;;;5052570;28;20457;-61
2023/05/26 12:29:12;;;;;;;8.00;4.40;;;25.90;86.60;;;;;;5052486;28;21020;-61
2023/05/26 12:31:45;;;;;;;12.37;4.57;;;25.90;85.70;;;;;;5052526;28;20450;-61
2023/05/26 12:34:14;;;;;;;8.17;4.63;;;26.10;86.80;;;;;;5034827;28;20542;-61
2023/05/26 12:36:44;;;;;;;10.30;4.70;;;26.90;87.00;;;;;;5052375;28;20461;-61
2023/05/26 12:39:12;;;;;;;13.13;4.90;;;27.30;86.00;;;;;;5034521;28;20484;-62
2023/05/26 12:41:40;;;;;;;10.23;5.00;;;27.10;85.40;;;;;;5044635;28;21161;-62
2023/05/26 12:44:08;;;;;;;8.67;4.93;;;26.70;84.90;;;;;;5014609;28;20497;-62
2023/05/26 12:46:36;;;;;;;9.40;5.00;;;26.40;85.30;;;;;;5032016;28;20889;-61
2023/05/26 12:49:03;;;;;;;8.70;4.83;;;26.30;86.90;;;;;;5032411;28;20478;-61
2023/05/26 12:51:31;;;;;;;8.90;4.70;;;25.90;87.30;;;;;;5031709;28;20462;-62